EGTK/OXF METAR and TAF weather

Enter ICAO airport designator
Station Type Date Time Source
EGTK METAR 2020/04/06 17:50 UTC NOAA

EGTK 061750Z 26011KT CAVOK 14/01 Q1022


Station Type Date Time Source
EGTK Decoded METAR 2020/04/06 17:50 UTC NOAA

Station name not available
Apr 06, 2020 - 01:50 PM EDT / 2020.04.06 1750 UTC
Wind: from the W (260 degrees) at 13 MPH (11 KT):0
Visibility: greater than 7 mile(s):0
Temperature: 57 F (14 C)
Dew Point: 33 F (1 C)
Relative Humidity: 41%
Pressure (altimeter): 30.18 in. Hg (1022 hPa)
ob: EGTK 061750Z 26011KT CAVOK 14/01 Q1022
cycle: 18

Station Type Date Time Source
EGTK TAF UTC NOAA

Error!

Example: see airport list